<?xml version="1.0" encoding="UTF-8" standalone="no" ?>
<gpx xmlns="http://www.topografix.com/GPX/1/1" xmlns:xsi="http://www.w3.org/2001/XMLSchema-instance" xsi:schemaLocation="http://www.topografix.com/GPX/1/1 http://www.topografix.com/GPX/1/1/gpx.xsd" version="1.1" creator="VisuGPX - https://www.visugpx.com">
  <metadata>
    <name>CB : La Baule, le Pouliguen et Pornichet</name>
    <desc><![CDATA[2ème run de la journée ! facile sur le plat et avec la lumière du début de soirée !]]></desc>
  </metadata>
  <trk>
    <name><![CDATA[2013/09/04-LA BAULE II]]></name>
    <trkseg>
      <trkpt lat="47.2808" lon="-2.37799">
        <ele>46.76</ele>
        <time>2013-09-04T16:04:24Z</time>
      </trkpt>
      <trkpt lat="47.28079" lon="-2.37746">
        <ele>45.32</ele>
        <time>2013-09-04T16:04:40Z</time>
      </trkpt>
      <trkpt lat="47.28072" lon="-2.37747">
        <ele>45.8</ele>
        <time>2013-09-04T16:04:47Z</time>
      </trkpt>
      <trkpt lat="47.28053" lon="-2.37759">
        <ele>41.47</ele>
        <time>2013-09-04T16:04:55Z</time>
      </trkpt>
      <trkpt lat="47.28047" lon="-2.37763">
        <ele>38.11</ele>
        <time>2013-09-04T16:04:57Z</time>
      </trkpt>
      <trkpt lat="47.28042" lon="-2.37768">
        <ele>34.74</ele>
        <time>2013-09-04T16:04:59Z</time>
      </trkpt>
      <trkpt lat="47.28036" lon="-2.37772">
        <ele>31.38</ele>
        <time>2013-09-04T16:05:01Z</time>
      </trkpt>
      <trkpt lat="47.28027" lon="-2.37774">
        <ele>28.5</ele>
        <time>2013-09-04T16:05:03Z</time>
      </trkpt>
      <trkpt lat="47.28015" lon="-2.37779">
        <ele>25.13</ele>
        <time>2013-09-04T16:05:06Z</time>
      </trkpt>
      <trkpt lat="47.28006" lon="-2.37784">
        <ele>22.25</ele>
        <time>2013-09-04T16:05:09Z</time>
      </trkpt>
      <trkpt lat="47.27995" lon="-2.37794">
        <ele>17.92</ele>
        <time>2013-09-04T16:05:13Z</time>
      </trkpt>
      <trkpt lat="47.27987" lon="-2.37801">
        <ele>16</ele>
        <time>2013-09-04T16:05:16Z</time>
      </trkpt>
      <trkpt lat="47.27972" lon="-2.37784">
        <ele>11.67</ele>
        <time>2013-09-04T16:05:22Z</time>
      </trkpt>
      <trkpt lat="47.27956" lon="-2.3774">
        <ele>8.31</ele>
        <time>2013-09-04T16:05:32Z</time>
      </trkpt>
      <trkpt lat="47.27935" lon="-2.37658">
        <ele>7.35</ele>
        <time>2013-09-04T16:05:44Z</time>
      </trkpt>
      <trkpt lat="47.2791" lon="-2.37553">
        <ele>6.87</ele>
        <time>2013-09-04T16:05:56Z</time>
      </trkpt>
      <trkpt lat="47.27883" lon="-2.3744">
        <ele>6.87</ele>
        <time>2013-09-04T16:06:13Z</time>
      </trkpt>
      <trkpt lat="47.27846" lon="-2.373">
        <ele>6.39</ele>
        <time>2013-09-04T16:06:36Z</time>
      </trkpt>
      <trkpt lat="47.27818" lon="-2.37198">
        <ele>6.87</ele>
        <time>2013-09-04T16:06:55Z</time>
      </trkpt>
      <trkpt lat="47.27806" lon="-2.37152">
        <ele>6.87</ele>
        <time>2013-09-04T16:07:04Z</time>
      </trkpt>
      <trkpt lat="47.27773" lon="-2.37026">
        <ele>6.87</ele>
        <time>2013-09-04T16:07:26Z</time>
      </trkpt>
      <trkpt lat="47.27739" lon="-2.36907">
        <ele>6.87</ele>
        <time>2013-09-04T16:07:47Z</time>
      </trkpt>
      <trkpt lat="47.27708" lon="-2.36799">
        <ele>6.87</ele>
        <time>2013-09-04T16:08:06Z</time>
      </trkpt>
      <trkpt lat="47.27665" lon="-2.36675">
        <ele>6.87</ele>
        <time>2013-09-04T16:08:28Z</time>
      </trkpt>
      <trkpt lat="47.27636" lon="-2.36594">
        <ele>6.87</ele>
        <time>2013-09-04T16:08:44Z</time>
      </trkpt>
      <trkpt lat="47.276" lon="-2.3649">
        <ele>6.87</ele>
        <time>2013-09-04T16:09:04Z</time>
      </trkpt>
      <trkpt lat="47.27561" lon="-2.36385">
        <ele>6.87</ele>
        <time>2013-09-04T16:09:24Z</time>
      </trkpt>
      <trkpt lat="47.27511" lon="-2.36255">
        <ele>7.35</ele>
        <time>2013-09-04T16:09:49Z</time>
      </trkpt>
      <trkpt lat="47.27468" lon="-2.36141">
        <ele>7.35</ele>
        <time>2013-09-04T16:10:10Z</time>
      </trkpt>
      <trkpt lat="47.27461" lon="-2.36114">
        <ele>7.35</ele>
        <time>2013-09-04T16:10:15Z</time>
      </trkpt>
      <trkpt lat="47.27452" lon="-2.36094">
        <ele>7.83</ele>
        <time>2013-09-04T16:10:19Z</time>
      </trkpt>
      <trkpt lat="47.27416" lon="-2.36007">
        <ele>7.35</ele>
        <time>2013-09-04T16:10:36Z</time>
      </trkpt>
      <trkpt lat="47.27364" lon="-2.35879">
        <ele>6.39</ele>
        <time>2013-09-04T16:10:59Z</time>
      </trkpt>
      <trkpt lat="47.27322" lon="-2.35764">
        <ele>5.91</ele>
        <time>2013-09-04T16:11:19Z</time>
      </trkpt>
      <trkpt lat="47.27309" lon="-2.3574">
        <ele>5.91</ele>
        <time>2013-09-04T16:11:24Z</time>
      </trkpt>
      <trkpt lat="47.27299" lon="-2.35712">
        <ele>5.91</ele>
        <time>2013-09-04T16:11:29Z</time>
      </trkpt>
      <trkpt lat="47.2726" lon="-2.35626">
        <ele>6.87</ele>
        <time>2013-09-04T16:11:46Z</time>
      </trkpt>
      <trkpt lat="47.27208" lon="-2.3551">
        <ele>7.35</ele>
        <time>2013-09-04T16:12:09Z</time>
      </trkpt>
      <trkpt lat="47.2716" lon="-2.35414">
        <ele>7.35</ele>
        <time>2013-09-04T16:12:29Z</time>
      </trkpt>
      <trkpt lat="47.27094" lon="-2.35305">
        <ele>7.35</ele>
        <time>2013-09-04T16:12:51Z</time>
      </trkpt>
      <trkpt lat="47.27086" lon="-2.3529">
        <ele>6.87</ele>
        <time>2013-09-04T16:12:54Z</time>
      </trkpt>
      <trkpt lat="47.27013" lon="-2.35179">
        <ele>6.87</ele>
        <time>2013-09-04T16:13:16Z</time>
      </trkpt>
      <trkpt lat="47.26938" lon="-2.35063">
        <ele>6.87</ele>
        <time>2013-09-04T16:13:39Z</time>
      </trkpt>
      <trkpt lat="47.26861" lon="-2.34947">
        <ele>6.87</ele>
        <time>2013-09-04T16:14:02Z</time>
      </trkpt>
      <trkpt lat="47.26785" lon="-2.34837">
        <ele>6.87</ele>
        <time>2013-09-04T16:14:24Z</time>
      </trkpt>
      <trkpt lat="47.26717" lon="-2.34748">
        <ele>7.35</ele>
        <time>2013-09-04T16:14:43Z</time>
      </trkpt>
      <trkpt lat="47.2664" lon="-2.34656">
        <ele>7.35</ele>
        <time>2013-09-04T16:15:04Z</time>
      </trkpt>
      <trkpt lat="47.26561" lon="-2.34565">
        <ele>6.87</ele>
        <time>2013-09-04T16:15:25Z</time>
      </trkpt>
      <trkpt lat="47.26542" lon="-2.34546">
        <ele>6.39</ele>
        <time>2013-09-04T16:15:34Z</time>
      </trkpt>
      <trkpt lat="47.26524" lon="-2.34528">
        <ele>6.87</ele>
        <time>2013-09-04T16:15:41Z</time>
      </trkpt>
      <trkpt lat="47.26451" lon="-2.34475">
        <ele>6.87</ele>
        <time>2013-09-04T16:15:58Z</time>
      </trkpt>
      <trkpt lat="47.264" lon="-2.34438">
        <ele>6.87</ele>
        <time>2013-09-04T16:16:10Z</time>
      </trkpt>
      <trkpt lat="47.26371" lon="-2.34411">
        <ele>6.87</ele>
        <time>2013-09-04T16:16:18Z</time>
      </trkpt>
      <trkpt lat="47.26355" lon="-2.34397">
        <ele>6.87</ele>
        <time>2013-09-04T16:16:22Z</time>
      </trkpt>
      <trkpt lat="47.26344" lon="-2.34388">
        <ele>6.87</ele>
        <time>2013-09-04T16:16:25Z</time>
      </trkpt>
      <trkpt lat="47.26313" lon="-2.34366">
        <ele>7.35</ele>
        <time>2013-09-04T16:16:33Z</time>
      </trkpt>
      <trkpt lat="47.26307" lon="-2.34356">
        <ele>7.35</ele>
        <time>2013-09-04T16:16:35Z</time>
      </trkpt>
      <trkpt lat="47.26273" lon="-2.34321">
        <ele>7.35</ele>
        <time>2013-09-04T16:16:44Z</time>
      </trkpt>
      <trkpt lat="47.26204" lon="-2.34246">
        <ele>6.87</ele>
        <time>2013-09-04T16:17:03Z</time>
      </trkpt>
      <trkpt lat="47.26154" lon="-2.34195">
        <ele>6.87</ele>
        <time>2013-09-04T16:17:16Z</time>
      </trkpt>
      <trkpt lat="47.26121" lon="-2.34169">
        <ele>6.87</ele>
        <time>2013-09-04T16:17:25Z</time>
      </trkpt>
      <trkpt lat="47.26117" lon="-2.34167">
        <ele>6.87</ele>
        <time>2013-09-04T16:17:26Z</time>
      </trkpt>
      <trkpt lat="47.26049" lon="-2.34132">
        <ele>6.87</ele>
        <time>2013-09-04T16:17:41Z</time>
      </trkpt>
      <trkpt lat="47.25962" lon="-2.34089">
        <ele>5.91</ele>
        <time>2013-09-04T16:18:00Z</time>
      </trkpt>
      <trkpt lat="47.25935" lon="-2.34079">
        <ele>6.39</ele>
        <time>2013-09-04T16:18:06Z</time>
      </trkpt>
      <trkpt lat="47.25904" lon="-2.34094">
        <ele>5.91</ele>
        <time>2013-09-04T16:18:13Z</time>
      </trkpt>
      <trkpt lat="47.25879" lon="-2.34159">
        <ele>5.91</ele>
        <time>2013-09-04T16:18:23Z</time>
      </trkpt>
      <trkpt lat="47.25852" lon="-2.34248">
        <ele>5.91</ele>
        <time>2013-09-04T16:18:37Z</time>
      </trkpt>
      <trkpt lat="47.25851" lon="-2.34275">
        <ele>6.39</ele>
        <time>2013-09-04T16:18:41Z</time>
      </trkpt>
      <trkpt lat="47.25866" lon="-2.34399">
        <ele>7.35</ele>
        <time>2013-09-04T16:19:00Z</time>
      </trkpt>
      <trkpt lat="47.25881" lon="-2.3453">
        <ele>6.39</ele>
        <time>2013-09-04T16:19:20Z</time>
      </trkpt>
      <trkpt lat="47.25888" lon="-2.34562">
        <ele>6.87</ele>
        <time>2013-09-04T16:19:25Z</time>
      </trkpt>
      <trkpt lat="47.25904" lon="-2.34625">
        <ele>6.39</ele>
        <time>2013-09-04T16:19:36Z</time>
      </trkpt>
      <trkpt lat="47.25928" lon="-2.34718">
        <ele>7.35</ele>
        <time>2013-09-04T16:19:53Z</time>
      </trkpt>
      <trkpt lat="47.25945" lon="-2.34782">
        <ele>6.39</ele>
        <time>2013-09-04T16:20:07Z</time>
      </trkpt>
      <trkpt lat="47.25945" lon="-2.34835">
        <ele>6.87</ele>
        <time>2013-09-04T16:20:21Z</time>
      </trkpt>
      <trkpt lat="47.25945" lon="-2.34842">
        <ele>6.87</ele>
        <time>2013-09-04T16:20:23Z</time>
      </trkpt>
      <trkpt lat="47.25947" lon="-2.34857">
        <ele>7.35</ele>
        <time>2013-09-04T16:20:27Z</time>
      </trkpt>
      <trkpt lat="47.25946" lon="-2.34883">
        <ele>6.87</ele>
        <time>2013-09-04T16:20:40Z</time>
      </trkpt>
      <trkpt lat="47.25947" lon="-2.34879">
        <ele>7.35</ele>
        <time>2013-09-04T16:21:13Z</time>
      </trkpt>
      <trkpt lat="47.25946" lon="-2.3488">
        <ele>7.35</ele>
        <time>2013-09-04T16:21:44Z</time>
      </trkpt>
      <trkpt lat="47.25945" lon="-2.3488">
        <ele>7.35</ele>
        <time>2013-09-04T16:22:29Z</time>
      </trkpt>
      <trkpt lat="47.25941" lon="-2.34882">
        <ele>7.35</ele>
        <time>2013-09-04T16:22:42Z</time>
      </trkpt>
      <trkpt lat="47.25941" lon="-2.34881">
        <ele>7.35</ele>
        <time>2013-09-04T16:22:45Z</time>
      </trkpt>
      <trkpt lat="47.25936" lon="-2.34903">
        <ele>7.35</ele>
        <time>2013-09-04T16:22:54Z</time>
      </trkpt>
      <trkpt lat="47.25914" lon="-2.34954">
        <ele>7.35</ele>
        <time>2013-09-04T16:23:10Z</time>
      </trkpt>
      <trkpt lat="47.25885" lon="-2.35012">
        <ele>7.35</ele>
        <time>2013-09-04T16:23:27Z</time>
      </trkpt>
      <trkpt lat="47.25857" lon="-2.35065">
        <ele>7.83</ele>
        <time>2013-09-04T16:23:44Z</time>
      </trkpt>
      <trkpt lat="47.25854" lon="-2.35071">
        <ele>7.35</ele>
        <time>2013-09-04T16:23:47Z</time>
      </trkpt>
      <trkpt lat="47.25853" lon="-2.35075">
        <ele>7.35</ele>
        <time>2013-09-04T16:23:49Z</time>
      </trkpt>
      <trkpt lat="47.25854" lon="-2.3507">
        <ele>7.35</ele>
        <time>2013-09-04T16:23:56Z</time>
      </trkpt>
      <trkpt lat="47.25859" lon="-2.35061">
        <ele>7.35</ele>
        <time>2013-09-04T16:23:59Z</time>
      </trkpt>
      <trkpt lat="47.25882" lon="-2.35017">
        <ele>7.35</ele>
        <time>2013-09-04T16:24:12Z</time>
      </trkpt>
      <trkpt lat="47.25916" lon="-2.34951">
        <ele>7.83</ele>
        <time>2013-09-04T16:24:28Z</time>
      </trkpt>
      <trkpt lat="47.25945" lon="-2.3487">
        <ele>7.83</ele>
        <time>2013-09-04T16:24:46Z</time>
      </trkpt>
      <trkpt lat="47.25944" lon="-2.34823">
        <ele>7.83</ele>
        <time>2013-09-04T16:24:57Z</time>
      </trkpt>
      <trkpt lat="47.25939" lon="-2.3476">
        <ele>7.35</ele>
        <time>2013-09-04T16:25:10Z</time>
      </trkpt>
      <trkpt lat="47.25935" lon="-2.34748">
        <ele>7.83</ele>
        <time>2013-09-04T16:25:14Z</time>
      </trkpt>
      <trkpt lat="47.25923" lon="-2.3475">
        <ele>7.83</ele>
        <time>2013-09-04T16:25:18Z</time>
      </trkpt>
      <trkpt lat="47.25913" lon="-2.34754">
        <ele>6.87</ele>
        <time>2013-09-04T16:25:21Z</time>
      </trkpt>
      <trkpt lat="47.25905" lon="-2.34751">
        <ele>6.87</ele>
        <time>2013-09-04T16:25:25Z</time>
      </trkpt>
      <trkpt lat="47.25894" lon="-2.34719">
        <ele>6.87</ele>
        <time>2013-09-04T16:25:34Z</time>
      </trkpt>
      <trkpt lat="47.25875" lon="-2.34676">
        <ele>6.87</ele>
        <time>2013-09-04T16:25:46Z</time>
      </trkpt>
      <trkpt lat="47.25851" lon="-2.34653">
        <ele>6.39</ele>
        <time>2013-09-04T16:25:57Z</time>
      </trkpt>
      <trkpt lat="47.25805" lon="-2.34643">
        <ele>6.39</ele>
        <time>2013-09-04T16:26:14Z</time>
      </trkpt>
      <trkpt lat="47.25777" lon="-2.34606">
        <ele>7.35</ele>
        <time>2013-09-04T16:26:28Z</time>
      </trkpt>
      <trkpt lat="47.25757" lon="-2.34595">
        <ele>8.31</ele>
        <time>2013-09-04T16:26:37Z</time>
      </trkpt>
      <trkpt lat="47.25718" lon="-2.34611">
        <ele>7.83</ele>
        <time>2013-09-04T16:26:51Z</time>
      </trkpt>
      <trkpt lat="47.25685" lon="-2.34669">
        <ele>7.83</ele>
        <time>2013-09-04T16:27:06Z</time>
      </trkpt>
      <trkpt lat="47.25684" lon="-2.3468">
        <ele>7.83</ele>
        <time>2013-09-04T16:27:16Z</time>
      </trkpt>
      <trkpt lat="47.25684" lon="-2.3468">
        <ele>7.83</ele>
        <time>2013-09-04T16:27:36Z</time>
      </trkpt>
      <trkpt lat="47.25663" lon="-2.34712">
        <ele>7.83</ele>
        <time>2013-09-04T16:27:49Z</time>
      </trkpt>
      <trkpt lat="47.25637" lon="-2.34764">
        <ele>7.83</ele>
        <time>2013-09-04T16:28:02Z</time>
      </trkpt>
      <trkpt lat="47.256" lon="-2.34835">
        <ele>7.83</ele>
        <time>2013-09-04T16:28:19Z</time>
      </trkpt>
      <trkpt lat="47.25568" lon="-2.34914">
        <ele>7.83</ele>
        <time>2013-09-04T16:28:36Z</time>
      </trkpt>
      <trkpt lat="47.25574" lon="-2.34972">
        <ele>7.83</ele>
        <time>2013-09-04T16:28:50Z</time>
      </trkpt>
      <trkpt lat="47.25579" lon="-2.34985">
        <ele>7.83</ele>
        <time>2013-09-04T16:28:54Z</time>
      </trkpt>
      <trkpt lat="47.25571" lon="-2.34987">
        <ele>8.31</ele>
        <time>2013-09-04T16:29:02Z</time>
      </trkpt>
      <trkpt lat="47.25568" lon="-2.34987">
        <ele>7.83</ele>
        <time>2013-09-04T16:29:15Z</time>
      </trkpt>
      <trkpt lat="47.25567" lon="-2.34983">
        <ele>7.83</ele>
        <time>2013-09-04T16:29:18Z</time>
      </trkpt>
      <trkpt lat="47.25564" lon="-2.34977">
        <ele>7.83</ele>
        <time>2013-09-04T16:29:22Z</time>
      </trkpt>
      <trkpt lat="47.25563" lon="-2.34923">
        <ele>7.83</ele>
        <time>2013-09-04T16:29:37Z</time>
      </trkpt>
      <trkpt lat="47.25592" lon="-2.34851">
        <ele>8.31</ele>
        <time>2013-09-04T16:29:53Z</time>
      </trkpt>
      <trkpt lat="47.25625" lon="-2.34787">
        <ele>7.83</ele>
        <time>2013-09-04T16:30:08Z</time>
      </trkpt>
      <trkpt lat="47.25661" lon="-2.34712">
        <ele>8.31</ele>
        <time>2013-09-04T16:30:25Z</time>
      </trkpt>
      <trkpt lat="47.25708" lon="-2.34621">
        <ele>7.83</ele>
        <time>2013-09-04T16:30:45Z</time>
      </trkpt>
      <trkpt lat="47.25742" lon="-2.34601">
        <ele>8.31</ele>
        <time>2013-09-04T16:30:56Z</time>
      </trkpt>
      <trkpt lat="47.2579" lon="-2.34596">
        <ele>7.83</ele>
        <time>2013-09-04T16:31:10Z</time>
      </trkpt>
      <trkpt lat="47.25851" lon="-2.34598">
        <ele>7.83</ele>
        <time>2013-09-04T16:31:27Z</time>
      </trkpt>
      <trkpt lat="47.25886" lon="-2.34603">
        <ele>7.83</ele>
        <time>2013-09-04T16:31:39Z</time>
      </trkpt>
      <trkpt lat="47.25888" lon="-2.34579">
        <ele>7.83</ele>
        <time>2013-09-04T16:31:44Z</time>
      </trkpt>
      <trkpt lat="47.25872" lon="-2.34473">
        <ele>7.83</ele>
        <time>2013-09-04T16:32:02Z</time>
      </trkpt>
      <trkpt lat="47.25858" lon="-2.34354">
        <ele>8.79</ele>
        <time>2013-09-04T16:32:22Z</time>
      </trkpt>
      <trkpt lat="47.25848" lon="-2.34257">
        <ele>8.31</ele>
        <time>2013-09-04T16:32:37Z</time>
      </trkpt>
      <trkpt lat="47.25877" lon="-2.34158">
        <ele>7.35</ele>
        <time>2013-09-04T16:32:52Z</time>
      </trkpt>
      <trkpt lat="47.25895" lon="-2.34075">
        <ele>7.35</ele>
        <time>2013-09-04T16:33:08Z</time>
      </trkpt>
      <trkpt lat="47.25899" lon="-2.34036">
        <ele>7.35</ele>
        <time>2013-09-04T16:33:17Z</time>
      </trkpt>
      <trkpt lat="47.25914" lon="-2.33985">
        <ele>7.35</ele>
        <time>2013-09-04T16:33:28Z</time>
      </trkpt>
      <trkpt lat="47.25924" lon="-2.33959">
        <ele>7.35</ele>
        <time>2013-09-04T16:33:39Z</time>
      </trkpt>
      <trkpt lat="47.25921" lon="-2.3396">
        <ele>6.87</ele>
        <time>2013-09-04T16:33:55Z</time>
      </trkpt>
      <trkpt lat="47.25923" lon="-2.33958">
        <ele>7.35</ele>
        <time>2013-09-04T16:34:22Z</time>
      </trkpt>
      <trkpt lat="47.25921" lon="-2.3396">
        <ele>7.35</ele>
        <time>2013-09-04T16:34:42Z</time>
      </trkpt>
      <trkpt lat="47.25916" lon="-2.33969">
        <ele>6.87</ele>
        <time>2013-09-04T16:34:47Z</time>
      </trkpt>
      <trkpt lat="47.25908" lon="-2.33987">
        <ele>7.35</ele>
        <time>2013-09-04T16:34:54Z</time>
      </trkpt>
      <trkpt lat="47.25911" lon="-2.33997">
        <ele>7.35</ele>
        <time>2013-09-04T16:34:58Z</time>
      </trkpt>
      <trkpt lat="47.25928" lon="-2.34013">
        <ele>7.83</ele>
        <time>2013-09-04T16:35:06Z</time>
      </trkpt>
      <trkpt lat="47.25948" lon="-2.34061">
        <ele>7.83</ele>
        <time>2013-09-04T16:35:18Z</time>
      </trkpt>
      <trkpt lat="47.25998" lon="-2.34088">
        <ele>8.31</ele>
        <time>2013-09-04T16:35:34Z</time>
      </trkpt>
      <trkpt lat="47.26057" lon="-2.34119">
        <ele>8.31</ele>
        <time>2013-09-04T16:35:52Z</time>
      </trkpt>
      <trkpt lat="47.26128" lon="-2.34156">
        <ele>8.79</ele>
        <time>2013-09-04T16:36:13Z</time>
      </trkpt>
      <trkpt lat="47.26159" lon="-2.34178">
        <ele>9.27</ele>
        <time>2013-09-04T16:36:23Z</time>
      </trkpt>
      <trkpt lat="47.26227" lon="-2.34247">
        <ele>9.27</ele>
        <time>2013-09-04T16:36:45Z</time>
      </trkpt>
      <trkpt lat="47.26272" lon="-2.34296">
        <ele>9.27</ele>
        <time>2013-09-04T16:37:00Z</time>
      </trkpt>
      <trkpt lat="47.26323" lon="-2.34349">
        <ele>9.27</ele>
        <time>2013-09-04T16:37:18Z</time>
      </trkpt>
      <trkpt lat="47.26351" lon="-2.34373">
        <ele>9.27</ele>
        <time>2013-09-04T16:37:28Z</time>
      </trkpt>
      <trkpt lat="47.26401" lon="-2.34415">
        <ele>9.75</ele>
        <time>2013-09-04T16:37:43Z</time>
      </trkpt>
      <trkpt lat="47.26461" lon="-2.34462">
        <ele>9.27</ele>
        <time>2013-09-04T16:38:02Z</time>
      </trkpt>
      <trkpt lat="47.26527" lon="-2.3451">
        <ele>9.75</ele>
        <time>2013-09-04T16:38:22Z</time>
      </trkpt>
      <trkpt lat="47.26566" lon="-2.3455">
        <ele>9.27</ele>
        <time>2013-09-04T16:38:35Z</time>
      </trkpt>
      <trkpt lat="47.2663" lon="-2.34625">
        <ele>9.75</ele>
        <time>2013-09-04T16:38:55Z</time>
      </trkpt>
      <trkpt lat="47.26673" lon="-2.3468">
        <ele>9.75</ele>
        <time>2013-09-04T16:39:10Z</time>
      </trkpt>
      <trkpt lat="47.26732" lon="-2.3475">
        <ele>9.75</ele>
        <time>2013-09-04T16:39:28Z</time>
      </trkpt>
      <trkpt lat="47.26785" lon="-2.34817">
        <ele>10.23</ele>
        <time>2013-09-04T16:39:45Z</time>
      </trkpt>
      <trkpt lat="47.26851" lon="-2.34915">
        <ele>10.23</ele>
        <time>2013-09-04T16:40:08Z</time>
      </trkpt>
      <trkpt lat="47.26916" lon="-2.35012">
        <ele>9.75</ele>
        <time>2013-09-04T16:40:31Z</time>
      </trkpt>
      <trkpt lat="47.26955" lon="-2.3507">
        <ele>9.75</ele>
        <time>2013-09-04T16:40:48Z</time>
      </trkpt>
      <trkpt lat="47.26959" lon="-2.3507">
        <ele>9.27</ele>
        <time>2013-09-04T16:40:58Z</time>
      </trkpt>
      <trkpt lat="47.26959" lon="-2.35069">
        <ele>9.75</ele>
        <time>2013-09-04T16:41:18Z</time>
      </trkpt>
      <trkpt lat="47.26958" lon="-2.35068">
        <ele>9.75</ele>
        <time>2013-09-04T16:41:57Z</time>
      </trkpt>
      <trkpt lat="47.26958" lon="-2.35075">
        <ele>9.75</ele>
        <time>2013-09-04T16:42:18Z</time>
      </trkpt>
      <trkpt lat="47.26986" lon="-2.35119">
        <ele>9.75</ele>
        <time>2013-09-04T16:42:31Z</time>
      </trkpt>
      <trkpt lat="47.2704" lon="-2.35202">
        <ele>10.71</ele>
        <time>2013-09-04T16:42:51Z</time>
      </trkpt>
      <trkpt lat="47.27089" lon="-2.35281">
        <ele>10.23</ele>
        <time>2013-09-04T16:43:10Z</time>
      </trkpt>
      <trkpt lat="47.27142" lon="-2.35363">
        <ele>11.19</ele>
        <time>2013-09-04T16:43:30Z</time>
      </trkpt>
      <trkpt lat="47.27189" lon="-2.35452">
        <ele>11.19</ele>
        <time>2013-09-04T16:43:50Z</time>
      </trkpt>
      <trkpt lat="47.27242" lon="-2.35563">
        <ele>10.71</ele>
        <time>2013-09-04T16:44:11Z</time>
      </trkpt>
      <trkpt lat="47.27292" lon="-2.35668">
        <ele>10.23</ele>
        <time>2013-09-04T16:44:30Z</time>
      </trkpt>
      <trkpt lat="47.27316" lon="-2.35718">
        <ele>9.27</ele>
        <time>2013-09-04T16:44:39Z</time>
      </trkpt>
      <trkpt lat="47.2733" lon="-2.35753">
        <ele>9.75</ele>
        <time>2013-09-04T16:44:45Z</time>
      </trkpt>
      <trkpt lat="47.27336" lon="-2.35769">
        <ele>9.27</ele>
        <time>2013-09-04T16:44:48Z</time>
      </trkpt>
      <trkpt lat="47.27339" lon="-2.3578">
        <ele>9.27</ele>
        <time>2013-09-04T16:44:50Z</time>
      </trkpt>
      <trkpt lat="47.2739" lon="-2.3591">
        <ele>10.71</ele>
        <time>2013-09-04T16:45:14Z</time>
      </trkpt>
      <trkpt lat="47.27432" lon="-2.36012">
        <ele>11.67</ele>
        <time>2013-09-04T16:45:33Z</time>
      </trkpt>
      <trkpt lat="47.27464" lon="-2.36079">
        <ele>12.15</ele>
        <time>2013-09-04T16:45:48Z</time>
      </trkpt>
      <trkpt lat="47.27467" lon="-2.3609">
        <ele>12.15</ele>
        <time>2013-09-04T16:45:50Z</time>
      </trkpt>
      <trkpt lat="47.27487" lon="-2.36157">
        <ele>12.15</ele>
        <time>2013-09-04T16:46:02Z</time>
      </trkpt>
      <trkpt lat="47.27533" lon="-2.36278">
        <ele>11.67</ele>
        <time>2013-09-04T16:46:24Z</time>
      </trkpt>
      <trkpt lat="47.27575" lon="-2.36387">
        <ele>11.67</ele>
        <time>2013-09-04T16:46:44Z</time>
      </trkpt>
      <trkpt lat="47.27617" lon="-2.36499">
        <ele>11.67</ele>
        <time>2013-09-04T16:47:04Z</time>
      </trkpt>
      <trkpt lat="47.27659" lon="-2.36622">
        <ele>11.67</ele>
        <time>2013-09-04T16:47:25Z</time>
      </trkpt>
      <trkpt lat="47.27702" lon="-2.36746">
        <ele>11.67</ele>
        <time>2013-09-04T16:47:46Z</time>
      </trkpt>
      <trkpt lat="47.27743" lon="-2.36888">
        <ele>11.67</ele>
        <time>2013-09-04T16:48:09Z</time>
      </trkpt>
      <trkpt lat="47.27774" lon="-2.36996">
        <ele>12.15</ele>
        <time>2013-09-04T16:48:26Z</time>
      </trkpt>
      <trkpt lat="47.27787" lon="-2.37041">
        <ele>12.15</ele>
        <time>2013-09-04T16:48:33Z</time>
      </trkpt>
      <trkpt lat="47.27813" lon="-2.37137">
        <ele>11.19</ele>
        <time>2013-09-04T16:48:50Z</time>
      </trkpt>
      <trkpt lat="47.27832" lon="-2.37191">
        <ele>12.15</ele>
        <time>2013-09-04T16:49:04Z</time>
      </trkpt>
      <trkpt lat="47.27843" lon="-2.3726">
        <ele>12.15</ele>
        <time>2013-09-04T16:49:17Z</time>
      </trkpt>
      <trkpt lat="47.27866" lon="-2.37342">
        <ele>12.15</ele>
        <time>2013-09-04T16:49:33Z</time>
      </trkpt>
      <trkpt lat="47.27867" lon="-2.37347">
        <ele>12.15</ele>
        <time>2013-09-04T16:49:34Z</time>
      </trkpt>
      <trkpt lat="47.27893" lon="-2.37452">
        <ele>12.15</ele>
        <time>2013-09-04T16:49:53Z</time>
      </trkpt>
      <trkpt lat="47.2792" lon="-2.37561">
        <ele>12.15</ele>
        <time>2013-09-04T16:50:12Z</time>
      </trkpt>
      <trkpt lat="47.27952" lon="-2.37689">
        <ele>12.63</ele>
        <time>2013-09-04T16:50:34Z</time>
      </trkpt>
      <trkpt lat="47.27975" lon="-2.37784">
        <ele>12.15</ele>
        <time>2013-09-04T16:50:49Z</time>
      </trkpt>
      <trkpt lat="47.27979" lon="-2.37795">
        <ele>12.15</ele>
        <time>2013-09-04T16:50:51Z</time>
      </trkpt>
      <trkpt lat="47.27982" lon="-2.37819">
        <ele>12.63</ele>
        <time>2013-09-04T16:50:55Z</time>
      </trkpt>
      <trkpt lat="47.28003" lon="-2.3794">
        <ele>12.63</ele>
        <time>2013-09-04T16:51:14Z</time>
      </trkpt>
      <trkpt lat="47.28032" lon="-2.38088">
        <ele>11.19</ele>
        <time>2013-09-04T16:51:38Z</time>
      </trkpt>
      <trkpt lat="47.28043" lon="-2.38142">
        <ele>12.63</ele>
        <time>2013-09-04T16:51:52Z</time>
      </trkpt>
      <trkpt lat="47.28044" lon="-2.38148">
        <ele>12.15</ele>
        <time>2013-09-04T16:51:53Z</time>
      </trkpt>
      <trkpt lat="47.28069" lon="-2.38286">
        <ele>12.15</ele>
        <time>2013-09-04T16:52:14Z</time>
      </trkpt>
      <trkpt lat="47.28099" lon="-2.38446">
        <ele>12.15</ele>
        <time>2013-09-04T16:52:37Z</time>
      </trkpt>
      <trkpt lat="47.28115" lon="-2.38562">
        <ele>11.67</ele>
        <time>2013-09-04T16:52:55Z</time>
      </trkpt>
      <trkpt lat="47.28122" lon="-2.38629">
        <ele>11.67</ele>
        <time>2013-09-04T16:53:12Z</time>
      </trkpt>
      <trkpt lat="47.28131" lon="-2.38741">
        <ele>11.67</ele>
        <time>2013-09-04T16:53:27Z</time>
      </trkpt>
      <trkpt lat="47.28135" lon="-2.38773">
        <ele>11.67</ele>
        <time>2013-09-04T16:53:31Z</time>
      </trkpt>
      <trkpt lat="47.28136" lon="-2.38799">
        <ele>11.67</ele>
        <time>2013-09-04T16:53:34Z</time>
      </trkpt>
      <trkpt lat="47.28157" lon="-2.38924">
        <ele>12.15</ele>
        <time>2013-09-04T16:53:50Z</time>
      </trkpt>
      <trkpt lat="47.28169" lon="-2.39024">
        <ele>12.63</ele>
        <time>2013-09-04T16:54:06Z</time>
      </trkpt>
      <trkpt lat="47.28174" lon="-2.39084">
        <ele>12.15</ele>
        <time>2013-09-04T16:54:19Z</time>
      </trkpt>
      <trkpt lat="47.28179" lon="-2.39161">
        <ele>12.63</ele>
        <time>2013-09-04T16:54:32Z</time>
      </trkpt>
      <trkpt lat="47.28183" lon="-2.39222">
        <ele>12.15</ele>
        <time>2013-09-04T16:54:45Z</time>
      </trkpt>
      <trkpt lat="47.282" lon="-2.39223">
        <ele>11.67</ele>
        <time>2013-09-04T16:54:53Z</time>
      </trkpt>
      <trkpt lat="47.28242" lon="-2.39222">
        <ele>11.19</ele>
        <time>2013-09-04T16:55:07Z</time>
      </trkpt>
      <trkpt lat="47.28269" lon="-2.39214">
        <ele>10.71</ele>
        <time>2013-09-04T16:55:16Z</time>
      </trkpt>
      <trkpt lat="47.28271" lon="-2.39215">
        <ele>10.71</ele>
        <time>2013-09-04T16:55:17Z</time>
      </trkpt>
      <trkpt lat="47.28261" lon="-2.39212">
        <ele>10.71</ele>
        <time>2013-09-04T16:55:26Z</time>
      </trkpt>
      <trkpt lat="47.2826" lon="-2.39198">
        <ele>10.71</ele>
        <time>2013-09-04T16:55:29Z</time>
      </trkpt>
      <trkpt lat="47.28256" lon="-2.39128">
        <ele>13.6</ele>
        <time>2013-09-04T16:55:43Z</time>
      </trkpt>
      <trkpt lat="47.28254" lon="-2.3909">
        <ele>13.12</ele>
        <time>2013-09-04T16:55:52Z</time>
      </trkpt>
      <trkpt lat="47.28262" lon="-2.39079">
        <ele>13.12</ele>
        <time>2013-09-04T16:55:57Z</time>
      </trkpt>
      <trkpt lat="47.28312" lon="-2.39074">
        <ele>12.15</ele>
        <time>2013-09-04T16:56:12Z</time>
      </trkpt>
      <trkpt lat="47.28365" lon="-2.39065">
        <ele>11.19</ele>
        <time>2013-09-04T16:56:27Z</time>
      </trkpt>
      <trkpt lat="47.28416" lon="-2.39056">
        <ele>10.71</ele>
        <time>2013-09-04T16:56:40Z</time>
      </trkpt>
      <trkpt lat="47.2842" lon="-2.39055">
        <ele>10.71</ele>
        <time>2013-09-04T16:56:41Z</time>
      </trkpt>
      <trkpt lat="47.28429" lon="-2.39056">
        <ele>10.71</ele>
        <time>2013-09-04T16:56:43Z</time>
      </trkpt>
      <trkpt lat="47.28448" lon="-2.39053">
        <ele>10.71</ele>
        <time>2013-09-04T16:56:47Z</time>
      </trkpt>
      <trkpt lat="47.2852" lon="-2.39042">
        <ele>11.67</ele>
        <time>2013-09-04T16:57:04Z</time>
      </trkpt>
      <trkpt lat="47.28576" lon="-2.39036">
        <ele>13.6</ele>
        <time>2013-09-04T16:57:21Z</time>
      </trkpt>
      <trkpt lat="47.28584" lon="-2.39074">
        <ele>14.08</ele>
        <time>2013-09-04T16:57:34Z</time>
      </trkpt>
      <trkpt lat="47.28575" lon="-2.3912">
        <ele>13.12</ele>
        <time>2013-09-04T16:57:49Z</time>
      </trkpt>
      <trkpt lat="47.28565" lon="-2.39154">
        <ele>11.67</ele>
        <time>2013-09-04T16:58:04Z</time>
      </trkpt>
      <trkpt lat="47.28562" lon="-2.39162">
        <ele>11.67</ele>
        <time>2013-09-04T16:58:13Z</time>
      </trkpt>
      <trkpt lat="47.28564" lon="-2.39156">
        <ele>12.15</ele>
        <time>2013-09-04T16:58:29Z</time>
      </trkpt>
      <trkpt lat="47.28565" lon="-2.39158">
        <ele>12.15</ele>
        <time>2013-09-04T16:58:57Z</time>
      </trkpt>
      <trkpt lat="47.28566" lon="-2.39164">
        <ele>11.67</ele>
        <time>2013-09-04T16:59:04Z</time>
      </trkpt>
      <trkpt lat="47.28557" lon="-2.39174">
        <ele>12.15</ele>
        <time>2013-09-04T16:59:15Z</time>
      </trkpt>
      <trkpt lat="47.28537" lon="-2.3918">
        <ele>11.67</ele>
        <time>2013-09-04T16:59:27Z</time>
      </trkpt>
      <trkpt lat="47.28514" lon="-2.39179">
        <ele>11.67</ele>
        <time>2013-09-04T16:59:39Z</time>
      </trkpt>
      <trkpt lat="47.28508" lon="-2.39179">
        <ele>11.19</ele>
        <time>2013-09-04T16:59:43Z</time>
      </trkpt>
      <trkpt lat="47.28492" lon="-2.39184">
        <ele>11.67</ele>
        <time>2013-09-04T16:59:53Z</time>
      </trkpt>
      <trkpt lat="47.28467" lon="-2.39186">
        <ele>11.67</ele>
        <time>2013-09-04T17:00:10Z</time>
      </trkpt>
      <trkpt lat="47.28463" lon="-2.39186">
        <ele>11.67</ele>
        <time>2013-09-04T17:00:12Z</time>
      </trkpt>
      <trkpt lat="47.28441" lon="-2.39192">
        <ele>12.15</ele>
        <time>2013-09-04T17:00:27Z</time>
      </trkpt>
      <trkpt lat="47.28414" lon="-2.39198">
        <ele>12.63</ele>
        <time>2013-09-04T17:00:41Z</time>
      </trkpt>
      <trkpt lat="47.28375" lon="-2.39202">
        <ele>12.63</ele>
        <time>2013-09-04T17:00:57Z</time>
      </trkpt>
      <trkpt lat="47.28343" lon="-2.3921">
        <ele>13.12</ele>
        <time>2013-09-04T17:01:10Z</time>
      </trkpt>
      <trkpt lat="47.28331" lon="-2.39209">
        <ele>13.12</ele>
        <time>2013-09-04T17:01:16Z</time>
      </trkpt>
      <trkpt lat="47.28275" lon="-2.39221">
        <ele>11.67</ele>
        <time>2013-09-04T17:01:34Z</time>
      </trkpt>
      <trkpt lat="47.28262" lon="-2.39233">
        <ele>11.19</ele>
        <time>2013-09-04T17:01:40Z</time>
      </trkpt>
      <trkpt lat="47.28239" lon="-2.39225">
        <ele>11.19</ele>
        <time>2013-09-04T17:01:51Z</time>
      </trkpt>
      <trkpt lat="47.28216" lon="-2.39225">
        <ele>12.15</ele>
        <time>2013-09-04T17:02:03Z</time>
      </trkpt>
      <trkpt lat="47.28202" lon="-2.39226">
        <ele>12.63</ele>
        <time>2013-09-04T17:02:09Z</time>
      </trkpt>
      <trkpt lat="47.28186" lon="-2.3926">
        <ele>13.12</ele>
        <time>2013-09-04T17:02:20Z</time>
      </trkpt>
      <trkpt lat="47.28188" lon="-2.39368">
        <ele>13.12</ele>
        <time>2013-09-04T17:02:41Z</time>
      </trkpt>
      <trkpt lat="47.28188" lon="-2.39469">
        <ele>12.63</ele>
        <time>2013-09-04T17:03:01Z</time>
      </trkpt>
      <trkpt lat="47.28186" lon="-2.39515">
        <ele>13.12</ele>
        <time>2013-09-04T17:03:14Z</time>
      </trkpt>
      <trkpt lat="47.28184" lon="-2.39577">
        <ele>13.12</ele>
        <time>2013-09-04T17:03:27Z</time>
      </trkpt>
      <trkpt lat="47.28184" lon="-2.39604">
        <ele>12.63</ele>
        <time>2013-09-04T17:03:40Z</time>
      </trkpt>
      <trkpt lat="47.28183" lon="-2.39605">
        <ele>13.12</ele>
        <time>2013-09-04T17:03:53Z</time>
      </trkpt>
      <trkpt lat="47.28182" lon="-2.39653">
        <ele>13.12</ele>
        <time>2013-09-04T17:04:04Z</time>
      </trkpt>
      <trkpt lat="47.28177" lon="-2.39764">
        <ele>13.6</ele>
        <time>2013-09-04T17:04:22Z</time>
      </trkpt>
      <trkpt lat="47.28169" lon="-2.39877">
        <ele>13.6</ele>
        <time>2013-09-04T17:04:39Z</time>
      </trkpt>
      <trkpt lat="47.28165" lon="-2.39975">
        <ele>13.12</ele>
        <time>2013-09-04T17:04:55Z</time>
      </trkpt>
      <trkpt lat="47.28165" lon="-2.40002">
        <ele>13.12</ele>
        <time>2013-09-04T17:05:00Z</time>
      </trkpt>
      <trkpt lat="47.2816" lon="-2.40019">
        <ele>13.6</ele>
        <time>2013-09-04T17:05:04Z</time>
      </trkpt>
      <trkpt lat="47.28152" lon="-2.40111">
        <ele>13.12</ele>
        <time>2013-09-04T17:05:20Z</time>
      </trkpt>
      <trkpt lat="47.28145" lon="-2.40196">
        <ele>12.63</ele>
        <time>2013-09-04T17:05:35Z</time>
      </trkpt>
      <trkpt lat="47.28133" lon="-2.40297">
        <ele>12.63</ele>
        <time>2013-09-04T17:05:54Z</time>
      </trkpt>
      <trkpt lat="47.28121" lon="-2.4039">
        <ele>12.63</ele>
        <time>2013-09-04T17:06:11Z</time>
      </trkpt>
      <trkpt lat="47.28095" lon="-2.40469">
        <ele>12.15</ele>
        <time>2013-09-04T17:06:27Z</time>
      </trkpt>
      <trkpt lat="47.28079" lon="-2.40499">
        <ele>12.63</ele>
        <time>2013-09-04T17:06:34Z</time>
      </trkpt>
      <trkpt lat="47.2806" lon="-2.40589">
        <ele>12.15</ele>
        <time>2013-09-04T17:06:50Z</time>
      </trkpt>
      <trkpt lat="47.28062" lon="-2.40654">
        <ele>12.15</ele>
        <time>2013-09-04T17:07:03Z</time>
      </trkpt>
      <trkpt lat="47.28059" lon="-2.40725">
        <ele>12.15</ele>
        <time>2013-09-04T17:07:16Z</time>
      </trkpt>
      <trkpt lat="47.28045" lon="-2.40785">
        <ele>12.15</ele>
        <time>2013-09-04T17:07:31Z</time>
      </trkpt>
      <trkpt lat="47.28026" lon="-2.40838">
        <ele>11.67</ele>
        <time>2013-09-04T17:07:44Z</time>
      </trkpt>
      <trkpt lat="47.28015" lon="-2.40895">
        <ele>11.67</ele>
        <time>2013-09-04T17:07:55Z</time>
      </trkpt>
      <trkpt lat="47.28" lon="-2.4095">
        <ele>11.19</ele>
        <time>2013-09-04T17:08:06Z</time>
      </trkpt>
      <trkpt lat="47.2799" lon="-2.40999">
        <ele>11.67</ele>
        <time>2013-09-04T17:08:19Z</time>
      </trkpt>
      <trkpt lat="47.27984" lon="-2.41033">
        <ele>11.19</ele>
        <time>2013-09-04T17:08:31Z</time>
      </trkpt>
      <trkpt lat="47.27974" lon="-2.41075">
        <ele>11.67</ele>
        <time>2013-09-04T17:08:48Z</time>
      </trkpt>
      <trkpt lat="47.27964" lon="-2.41134">
        <ele>11.67</ele>
        <time>2013-09-04T17:09:07Z</time>
      </trkpt>
      <trkpt lat="47.27957" lon="-2.41148">
        <ele>11.67</ele>
        <time>2013-09-04T17:09:13Z</time>
      </trkpt>
      <trkpt lat="47.27947" lon="-2.41196">
        <ele>11.67</ele>
        <time>2013-09-04T17:09:30Z</time>
      </trkpt>
      <trkpt lat="47.27929" lon="-2.41257">
        <ele>11.67</ele>
        <time>2013-09-04T17:09:50Z</time>
      </trkpt>
      <trkpt lat="47.27915" lon="-2.41305">
        <ele>11.19</ele>
        <time>2013-09-04T17:10:06Z</time>
      </trkpt>
      <trkpt lat="47.27904" lon="-2.41354">
        <ele>11.67</ele>
        <time>2013-09-04T17:10:23Z</time>
      </trkpt>
      <trkpt lat="47.27889" lon="-2.41399">
        <ele>11.67</ele>
        <time>2013-09-04T17:10:38Z</time>
      </trkpt>
      <trkpt lat="47.27877" lon="-2.4145">
        <ele>11.67</ele>
        <time>2013-09-04T17:10:54Z</time>
      </trkpt>
      <trkpt lat="47.27863" lon="-2.41494">
        <ele>11.67</ele>
        <time>2013-09-04T17:11:10Z</time>
      </trkpt>
      <trkpt lat="47.27845" lon="-2.41544">
        <ele>12.15</ele>
        <time>2013-09-04T17:11:30Z</time>
      </trkpt>
      <trkpt lat="47.27817" lon="-2.41614">
        <ele>12.15</ele>
        <time>2013-09-04T17:11:50Z</time>
      </trkpt>
      <trkpt lat="47.27792" lon="-2.41682">
        <ele>11.67</ele>
        <time>2013-09-04T17:12:09Z</time>
      </trkpt>
      <trkpt lat="47.27782" lon="-2.41714">
        <ele>11.19</ele>
        <time>2013-09-04T17:12:21Z</time>
      </trkpt>
      <trkpt lat="47.27761" lon="-2.41765">
        <ele>11.19</ele>
        <time>2013-09-04T17:12:40Z</time>
      </trkpt>
      <trkpt lat="47.27747" lon="-2.41812">
        <ele>11.19</ele>
        <time>2013-09-04T17:12:55Z</time>
      </trkpt>
      <trkpt lat="47.27727" lon="-2.41851">
        <ele>11.67</ele>
        <time>2013-09-04T17:13:09Z</time>
      </trkpt>
      <trkpt lat="47.2771" lon="-2.41897">
        <ele>11.19</ele>
        <time>2013-09-04T17:13:24Z</time>
      </trkpt>
      <trkpt lat="47.27706" lon="-2.41905">
        <ele>11.19</ele>
        <time>2013-09-04T17:13:27Z</time>
      </trkpt>
      <trkpt lat="47.27693" lon="-2.41941">
        <ele>11.19</ele>
        <time>2013-09-04T17:13:40Z</time>
      </trkpt>
      <trkpt lat="47.27675" lon="-2.41987">
        <ele>11.67</ele>
        <time>2013-09-04T17:13:57Z</time>
      </trkpt>
      <trkpt lat="47.2766" lon="-2.42021">
        <ele>11.19</ele>
        <time>2013-09-04T17:14:11Z</time>
      </trkpt>
      <trkpt lat="47.27644" lon="-2.42058">
        <ele>11.19</ele>
        <time>2013-09-04T17:14:26Z</time>
      </trkpt>
      <trkpt lat="47.27622" lon="-2.42105">
        <ele>11.67</ele>
        <time>2013-09-04T17:14:44Z</time>
      </trkpt>
      <trkpt lat="47.276" lon="-2.42147">
        <ele>11.67</ele>
        <time>2013-09-04T17:15:00Z</time>
      </trkpt>
      <trkpt lat="47.27584" lon="-2.42183">
        <ele>11.67</ele>
        <time>2013-09-04T17:15:13Z</time>
      </trkpt>
      <trkpt lat="47.27556" lon="-2.4222">
        <ele>11.67</ele>
        <time>2013-09-04T17:15:29Z</time>
      </trkpt>
      <trkpt lat="47.27515" lon="-2.42281">
        <ele>11.19</ele>
        <time>2013-09-04T17:15:49Z</time>
      </trkpt>
      <trkpt lat="47.27487" lon="-2.42318">
        <ele>11.19</ele>
        <time>2013-09-04T17:16:04Z</time>
      </trkpt>
      <trkpt lat="47.27459" lon="-2.42346">
        <ele>10.71</ele>
        <time>2013-09-04T17:16:18Z</time>
      </trkpt>
      <trkpt lat="47.27451" lon="-2.42357">
        <ele>11.19</ele>
        <time>2013-09-04T17:16:25Z</time>
      </trkpt>
      <trkpt lat="47.27445" lon="-2.42392">
        <ele>11.19</ele>
        <time>2013-09-04T17:16:37Z</time>
      </trkpt>
      <trkpt lat="47.2745" lon="-2.42397">
        <ele>11.19</ele>
        <time>2013-09-04T17:16:39Z</time>
      </trkpt>
      <trkpt lat="47.27484" lon="-2.42432">
        <ele>11.19</ele>
        <time>2013-09-04T17:16:56Z</time>
      </trkpt>
      <trkpt lat="47.27518" lon="-2.42456">
        <ele>11.19</ele>
        <time>2013-09-04T17:17:12Z</time>
      </trkpt>
      <trkpt lat="47.27547" lon="-2.42474">
        <ele>11.67</ele>
        <time>2013-09-04T17:17:26Z</time>
      </trkpt>
      <trkpt lat="47.27579" lon="-2.42496">
        <ele>11.67</ele>
        <time>2013-09-04T17:17:42Z</time>
      </trkpt>
      <trkpt lat="47.27583" lon="-2.425">
        <ele>11.19</ele>
        <time>2013-09-04T17:17:45Z</time>
      </trkpt>
      <trkpt lat="47.27589" lon="-2.42514">
        <ele>11.19</ele>
        <time>2013-09-04T17:17:57Z</time>
      </trkpt>
      <trkpt lat="47.2759" lon="-2.42514">
        <ele>11.19</ele>
        <time>2013-09-04T17:17:58Z</time>
      </trkpt>
      <trkpt lat="47.27603" lon="-2.42528">
        <ele>10.71</ele>
        <time>2013-09-04T17:18:14Z</time>
      </trkpt>
      <trkpt lat="47.27613" lon="-2.42541">
        <ele>11.19</ele>
        <time>2013-09-04T17:18:31Z</time>
      </trkpt>
      <trkpt lat="47.27626" lon="-2.42557">
        <ele>11.19</ele>
        <time>2013-09-04T17:18:49Z</time>
      </trkpt>
      <trkpt lat="47.27633" lon="-2.42569">
        <ele>11.19</ele>
        <time>2013-09-04T17:19:02Z</time>
      </trkpt>
      <trkpt lat="47.27641" lon="-2.42578">
        <ele>11.19</ele>
        <time>2013-09-04T17:19:15Z</time>
      </trkpt>
      <trkpt lat="47.27649" lon="-2.42582">
        <ele>11.19</ele>
        <time>2013-09-04T17:19:28Z</time>
      </trkpt>
      <trkpt lat="47.27677" lon="-2.42615">
        <ele>11.19</ele>
        <time>2013-09-04T17:19:42Z</time>
      </trkpt>
      <trkpt lat="47.27716" lon="-2.42654">
        <ele>11.67</ele>
        <time>2013-09-04T17:19:57Z</time>
      </trkpt>
      <trkpt lat="47.27763" lon="-2.4269">
        <ele>11.67</ele>
        <time>2013-09-04T17:20:13Z</time>
      </trkpt>
      <trkpt lat="47.27809" lon="-2.42706">
        <ele>11.67</ele>
        <time>2013-09-04T17:20:29Z</time>
      </trkpt>
      <trkpt lat="47.27827" lon="-2.42707">
        <ele>11.67</ele>
        <time>2013-09-04T17:20:37Z</time>
      </trkpt>
      <trkpt lat="47.27832" lon="-2.42713">
        <ele>12.15</ele>
        <time>2013-09-04T17:20:41Z</time>
      </trkpt>
      <trkpt lat="47.27833" lon="-2.42806">
        <ele>12.63</ele>
        <time>2013-09-04T17:20:58Z</time>
      </trkpt>
      <trkpt lat="47.27835" lon="-2.42818">
        <ele>12.63</ele>
        <time>2013-09-04T17:21:00Z</time>
      </trkpt>
      <trkpt lat="47.2782" lon="-2.42829">
        <ele>11.19</ele>
        <time>2013-09-04T17:21:05Z</time>
      </trkpt>
      <trkpt lat="47.27767" lon="-2.42816">
        <ele>10.71</ele>
        <time>2013-09-04T17:21:22Z</time>
      </trkpt>
      <trkpt lat="47.27736" lon="-2.42808">
        <ele>10.71</ele>
        <time>2013-09-04T17:21:37Z</time>
      </trkpt>
      <trkpt lat="47.27718" lon="-2.42803">
        <ele>11.19</ele>
        <time>2013-09-04T17:21:43Z</time>
      </trkpt>
      <trkpt lat="47.27714" lon="-2.42807">
        <ele>10.71</ele>
        <time>2013-09-04T17:21:54Z</time>
      </trkpt>
      <trkpt lat="47.27712" lon="-2.42813">
        <ele>10.71</ele>
        <time>2013-09-04T17:22:11Z</time>
      </trkpt>
      <trkpt lat="47.2771" lon="-2.42812">
        <ele>10.71</ele>
        <time>2013-09-04T17:22:21Z</time>
      </trkpt>
      <trkpt lat="47.27705" lon="-2.42807">
        <ele>10.71</ele>
        <time>2013-09-04T17:22:31Z</time>
      </trkpt>
      <trkpt lat="47.27696" lon="-2.42801">
        <ele>10.71</ele>
        <time>2013-09-04T17:22:41Z</time>
      </trkpt>
      <trkpt lat="47.27695" lon="-2.42795">
        <ele>10.71</ele>
        <time>2013-09-04T17:22:46Z</time>
      </trkpt>
      <trkpt lat="47.27698" lon="-2.42788">
        <ele>10.71</ele>
        <time>2013-09-04T17:22:51Z</time>
      </trkpt>
      <trkpt lat="47.277" lon="-2.42786">
        <ele>10.23</ele>
        <time>2013-09-04T17:23:07Z</time>
      </trkpt>
      <trkpt lat="47.277" lon="-2.42785">
        <ele>7.35</ele>
        <time>2013-09-04T17:23:19Z</time>
      </trkpt>
      <trkpt lat="47.277" lon="-2.42785">
        <ele>9.75</ele>
        <time>2013-09-04T18:36:12Z</time>
      </trkpt>
      <trkpt lat="47.27707" lon="-2.42806">
        <ele>9.27</ele>
        <time>2013-09-04T18:36:13Z</time>
      </trkpt>
      <trkpt lat="47.27707" lon="-2.42775">
        <ele>10.71</ele>
        <time>2013-09-04T18:36:26Z</time>
      </trkpt>
      <trkpt lat="47.27708" lon="-2.42772">
        <ele>13.12</ele>
        <time>2013-09-04T18:36:29Z</time>
      </trkpt>
      <trkpt lat="47.27707" lon="-2.42771">
        <ele>14.56</ele>
        <time>2013-09-04T18:36:31Z</time>
      </trkpt>
      <trkpt lat="47.27705" lon="-2.42768">
        <ele>15.52</ele>
        <time>2013-09-04T18:36:37Z</time>
      </trkpt>
      <trkpt lat="47.27705" lon="-2.42771">
        <ele>13.6</ele>
        <time>2013-09-04T18:36:43Z</time>
      </trkpt>
      <trkpt lat="47.277" lon="-2.42785">
        <ele>7.35</ele>
        <time>2013-09-04T18:38:42Z</time>
      </trkpt>
      <trkpt lat="47.27685" lon="-2.4276">
        <ele>7.35</ele>
        <time>2013-09-04T18:38:43Z</time>
      </trkpt>
      <trkpt lat="47.277" lon="-2.42793">
        <ele>7.83</ele>
        <time>2013-09-04T18:38:53Z</time>
      </trkpt>
      <trkpt lat="47.27708" lon="-2.42798">
        <ele>7.35</ele>
        <time>2013-09-04T18:38:58Z</time>
      </trkpt>
      <trkpt lat="47.27743" lon="-2.4281">
        <ele>7.83</ele>
        <time>2013-09-04T18:39:13Z</time>
      </trkpt>
      <trkpt lat="47.27805" lon="-2.4282">
        <ele>8.31</ele>
        <time>2013-09-04T18:39:32Z</time>
      </trkpt>
      <trkpt lat="47.27827" lon="-2.42808">
        <ele>8.79</ele>
        <time>2013-09-04T18:39:43Z</time>
      </trkpt>
      <trkpt lat="47.27825" lon="-2.42731">
        <ele>9.75</ele>
        <time>2013-09-04T18:40:00Z</time>
      </trkpt>
      <trkpt lat="47.27825" lon="-2.42725">
        <ele>9.75</ele>
        <time>2013-09-04T18:40:01Z</time>
      </trkpt>
      <trkpt lat="47.27822" lon="-2.42712">
        <ele>9.27</ele>
        <time>2013-09-04T18:40:03Z</time>
      </trkpt>
      <trkpt lat="47.27818" lon="-2.42708">
        <ele>9.27</ele>
        <time>2013-09-04T18:40:04Z</time>
      </trkpt>
      <trkpt lat="47.27814" lon="-2.42705">
        <ele>9.27</ele>
        <time>2013-09-04T18:40:05Z</time>
      </trkpt>
      <trkpt lat="47.27776" lon="-2.42696">
        <ele>9.27</ele>
        <time>2013-09-04T18:40:14Z</time>
      </trkpt>
      <trkpt lat="47.27729" lon="-2.42667">
        <ele>9.27</ele>
        <time>2013-09-04T18:40:25Z</time>
      </trkpt>
      <trkpt lat="47.27648" lon="-2.42581">
        <ele>9.27</ele>
        <time>2013-09-04T18:40:46Z</time>
      </trkpt>
      <trkpt lat="47.27587" lon="-2.42505">
        <ele>8.79</ele>
        <time>2013-09-04T18:41:04Z</time>
      </trkpt>
      <trkpt lat="47.27597" lon="-2.42477">
        <ele>8.79</ele>
        <time>2013-09-04T18:41:09Z</time>
      </trkpt>
      <trkpt lat="47.27635" lon="-2.424">
        <ele>7.83</ele>
        <time>2013-09-04T18:41:21Z</time>
      </trkpt>
      <trkpt lat="47.27645" lon="-2.42347">
        <ele>7.83</ele>
        <time>2013-09-04T18:41:29Z</time>
      </trkpt>
      <trkpt lat="47.27663" lon="-2.42273">
        <ele>8.31</ele>
        <time>2013-09-04T18:41:40Z</time>
      </trkpt>
      <trkpt lat="47.27708" lon="-2.42174">
        <ele>7.35</ele>
        <time>2013-09-04T18:41:56Z</time>
      </trkpt>
      <trkpt lat="47.27721" lon="-2.42147">
        <ele>7.83</ele>
        <time>2013-09-04T18:42:01Z</time>
      </trkpt>
      <trkpt lat="47.27733" lon="-2.42129">
        <ele>7.83</ele>
        <time>2013-09-04T18:42:05Z</time>
      </trkpt>
      <trkpt lat="47.27745" lon="-2.42057">
        <ele>8.31</ele>
        <time>2013-09-04T18:42:16Z</time>
      </trkpt>
      <trkpt lat="47.27771" lon="-2.4195">
        <ele>8.79</ele>
        <time>2013-09-04T18:42:32Z</time>
      </trkpt>
      <trkpt lat="47.27808" lon="-2.4185">
        <ele>8.79</ele>
        <time>2013-09-04T18:42:47Z</time>
      </trkpt>
      <trkpt lat="47.27817" lon="-2.41826">
        <ele>8.79</ele>
        <time>2013-09-04T18:42:51Z</time>
      </trkpt>
      <trkpt lat="47.27829" lon="-2.41796">
        <ele>8.31</ele>
        <time>2013-09-04T18:42:56Z</time>
      </trkpt>
      <trkpt lat="47.27853" lon="-2.41744">
        <ele>8.31</ele>
        <time>2013-09-04T18:43:04Z</time>
      </trkpt>
      <trkpt lat="47.27904" lon="-2.41641">
        <ele>8.31</ele>
        <time>2013-09-04T18:43:19Z</time>
      </trkpt>
      <trkpt lat="47.2794" lon="-2.41568">
        <ele>8.31</ele>
        <time>2013-09-04T18:43:30Z</time>
      </trkpt>
      <trkpt lat="47.27949" lon="-2.41549">
        <ele>8.31</ele>
        <time>2013-09-04T18:43:33Z</time>
      </trkpt>
      <trkpt lat="47.27979" lon="-2.41456">
        <ele>9.27</ele>
        <time>2013-09-04T18:43:48Z</time>
      </trkpt>
      <trkpt lat="47.27985" lon="-2.41435">
        <ele>9.75</ele>
        <time>2013-09-04T18:43:51Z</time>
      </trkpt>
      <trkpt lat="47.28008" lon="-2.41287">
        <ele>8.79</ele>
        <time>2013-09-04T18:44:10Z</time>
      </trkpt>
      <trkpt lat="47.28037" lon="-2.41166">
        <ele>8.31</ele>
        <time>2013-09-04T18:44:25Z</time>
      </trkpt>
      <trkpt lat="47.28056" lon="-2.41057">
        <ele>7.83</ele>
        <time>2013-09-04T18:44:39Z</time>
      </trkpt>
      <trkpt lat="47.28075" lon="-2.40987">
        <ele>8.31</ele>
        <time>2013-09-04T18:44:48Z</time>
      </trkpt>
      <trkpt lat="47.28088" lon="-2.40944">
        <ele>9.75</ele>
        <time>2013-09-04T18:44:55Z</time>
      </trkpt>
      <trkpt lat="47.2807" lon="-2.40897">
        <ele>10.23</ele>
        <time>2013-09-04T18:45:04Z</time>
      </trkpt>
      <trkpt lat="47.28059" lon="-2.40878">
        <ele>9.75</ele>
        <time>2013-09-04T18:45:08Z</time>
      </trkpt>
      <trkpt lat="47.28054" lon="-2.40863">
        <ele>9.75</ele>
        <time>2013-09-04T18:45:11Z</time>
      </trkpt>
      <trkpt lat="47.28034" lon="-2.4081">
        <ele>9.27</ele>
        <time>2013-09-04T18:45:22Z</time>
      </trkpt>
      <trkpt lat="47.2804" lon="-2.40763">
        <ele>9.75</ele>
        <time>2013-09-04T18:45:32Z</time>
      </trkpt>
      <trkpt lat="47.28047" lon="-2.40728">
        <ele>10.23</ele>
        <time>2013-09-04T18:45:38Z</time>
      </trkpt>
      <trkpt lat="47.28043" lon="-2.40672">
        <ele>10.23</ele>
        <time>2013-09-04T18:45:46Z</time>
      </trkpt>
      <trkpt lat="47.28039" lon="-2.40651">
        <ele>10.23</ele>
        <time>2013-09-04T18:45:49Z</time>
      </trkpt>
      <trkpt lat="47.28043" lon="-2.40596">
        <ele>10.71</ele>
        <time>2013-09-04T18:45:57Z</time>
      </trkpt>
      <trkpt lat="47.28047" lon="-2.40592">
        <ele>10.23</ele>
        <time>2013-09-04T18:45:58Z</time>
      </trkpt>
      <trkpt lat="47.28051" lon="-2.40585">
        <ele>9.75</ele>
        <time>2013-09-04T18:45:59Z</time>
      </trkpt>
      <trkpt lat="47.28056" lon="-2.40569">
        <ele>9.75</ele>
        <time>2013-09-04T18:46:02Z</time>
      </trkpt>
      <trkpt lat="47.2806" lon="-2.4055">
        <ele>9.75</ele>
        <time>2013-09-04T18:46:05Z</time>
      </trkpt>
      <trkpt lat="47.28071" lon="-2.40495">
        <ele>10.23</ele>
        <time>2013-09-04T18:46:13Z</time>
      </trkpt>
      <trkpt lat="47.28102" lon="-2.40436">
        <ele>10.71</ele>
        <time>2013-09-04T18:46:23Z</time>
      </trkpt>
      <trkpt lat="47.28122" lon="-2.40304">
        <ele>10.71</ele>
        <time>2013-09-04T18:46:40Z</time>
      </trkpt>
      <trkpt lat="47.28144" lon="-2.40106">
        <ele>11.67</ele>
        <time>2013-09-04T18:47:02Z</time>
      </trkpt>
      <trkpt lat="47.28152" lon="-2.40011">
        <ele>11.19</ele>
        <time>2013-09-04T18:47:12Z</time>
      </trkpt>
      <trkpt lat="47.28163" lon="-2.39876">
        <ele>11.67</ele>
        <time>2013-09-04T18:47:26Z</time>
      </trkpt>
      <trkpt lat="47.28174" lon="-2.39663">
        <ele>12.15</ele>
        <time>2013-09-04T18:47:48Z</time>
      </trkpt>
      <trkpt lat="47.28175" lon="-2.39475">
        <ele>12.63</ele>
        <time>2013-09-04T18:48:05Z</time>
      </trkpt>
      <trkpt lat="47.28175" lon="-2.39279">
        <ele>12.15</ele>
        <time>2013-09-04T18:48:24Z</time>
      </trkpt>
      <trkpt lat="47.28172" lon="-2.39211">
        <ele>12.15</ele>
        <time>2013-09-04T18:48:31Z</time>
      </trkpt>
      <trkpt lat="47.28156" lon="-2.39003">
        <ele>12.15</ele>
        <time>2013-09-04T18:48:51Z</time>
      </trkpt>
      <trkpt lat="47.28137" lon="-2.38913">
        <ele>11.67</ele>
        <time>2013-09-04T18:49:00Z</time>
      </trkpt>
      <trkpt lat="47.28121" lon="-2.38756">
        <ele>11.19</ele>
        <time>2013-09-04T18:49:14Z</time>
      </trkpt>
      <trkpt lat="47.28094" lon="-2.385">
        <ele>11.67</ele>
        <time>2013-09-04T18:49:37Z</time>
      </trkpt>
      <trkpt lat="47.28058" lon="-2.38293">
        <ele>11.67</ele>
        <time>2013-09-04T18:49:58Z</time>
      </trkpt>
      <trkpt lat="47.28022" lon="-2.38097">
        <ele>12.63</ele>
        <time>2013-09-04T18:50:19Z</time>
      </trkpt>
      <trkpt lat="47.27984" lon="-2.37903">
        <ele>12.63</ele>
        <time>2013-09-04T18:50:38Z</time>
      </trkpt>
      <trkpt lat="47.27974" lon="-2.37836">
        <ele>12.15</ele>
        <time>2013-09-04T18:50:46Z</time>
      </trkpt>
      <trkpt lat="47.27969" lon="-2.37816">
        <ele>12.63</ele>
        <time>2013-09-04T18:50:49Z</time>
      </trkpt>
      <trkpt lat="47.2797" lon="-2.37795">
        <ele>12.15</ele>
        <time>2013-09-04T18:50:53Z</time>
      </trkpt>
      <trkpt lat="47.2801" lon="-2.37768">
        <ele>12.15</ele>
        <time>2013-09-04T18:51:05Z</time>
      </trkpt>
      <trkpt lat="47.28039" lon="-2.37742">
        <ele>11.67</ele>
        <time>2013-09-04T18:51:14Z</time>
      </trkpt>
      <trkpt lat="47.28041" lon="-2.37737">
        <ele>11.67</ele>
        <time>2013-09-04T18:51:27Z</time>
      </trkpt>
      <trkpt lat="47.28043" lon="-2.37737">
        <ele>11.67</ele>
        <time>2013-09-04T18:51:52Z</time>
      </trkpt>
      <trkpt lat="47.28045" lon="-2.37738">
        <ele>12.15</ele>
        <time>2013-09-04T18:52:14Z</time>
      </trkpt>
    </trkseg>
  </trk>
</gpx>